createdAt,value
2023-01-17T00:02:19.157Z,93744.29
2023-01-17T00:05:06.754Z,93745.52
2023-01-17T00:07:54.823Z,93759.59
2023-01-17T00:10:25.988Z,93771.49
2023-01-17T00:12:56.004Z,93771.49
2023-01-17T00:15:25.304Z,93761.61
2023-01-17T00:17:54.827Z,93751.21
2023-01-17T00:20:48.678Z,93743.42
2023-01-17T00:23:37.327Z,93740.21
2023-01-17T00:26:12.100Z,93734.04
2023-01-17T00:28:41.749Z,93733.42
2023-01-17T00:31:13.092Z,93728.50
2023-01-17T00:33:42.027Z,93731.97
2023-01-17T00:36:11.441Z,93722.69
2023-01-17T00:38:40.519Z,93723.71
2023-01-17T00:41:11.757Z,93716.22
2023-01-17T00:43:58.885Z,93713.50
2023-01-17T00:46:46.071Z,93713.16
2023-01-17T00:49:34.257Z,93732.02
2023-01-17T00:52:21.088Z,93739.95
2023-01-17T00:55:07.986Z,93746.79
2023-01-17T00:57:54.897Z,93728.67
2023-01-17T01:00:41.959Z,93714.55
2023-01-17T01:03:30.368Z,93717.48
2023-01-17T01:06:17.837Z,93730.02
2023-01-17T01:09:05.143Z,93741.05
2023-01-17T01:11:51.922Z,93748.75
2023-01-17T01:14:39.359Z,93743.15
2023-01-17T01:17:26.264Z,93748.62
2023-01-17T01:20:13.490Z,93750.20
2023-01-17T01:23:00.464Z,93743.31
2023-01-17T01:25:47.151Z,93733.42
2023-01-17T01:28:34.139Z,93720.79
2023-01-17T01:31:23.337Z,93720.58
2023-01-17T01:33:53.065Z,93715.56
2023-01-17T01:36:21.710Z,93710.27
2023-01-17T01:38:50.597Z,93710.66
2023-01-17T01:41:19.188Z,93705.98
2023-01-17T01:43:52.992Z,93707.68
2023-01-17T01:46:30.283Z,93710.13
2023-01-17T01:49:06.265Z,93716.23
2023-01-17T01:51:50.812Z,93718.14
2023-01-17T01:54:34.143Z,93717.59
2023-01-17T01:57:05.913Z,93719.14
2023-01-17T01:59:35.171Z,93718.50
2023-01-17T02:02:03.254Z,93711.39
2023-01-17T02:04:31.484Z,93700.73
2023-01-17T02:07:13.031Z,93691.10
2023-01-17T02:09:41.935Z,93690.94
2023-01-17T02:12:11.540Z,93680.95
2023-01-17T02:14:39.930Z,93669.94
2023-01-17T02:17:27.961Z,93663.44
2023-01-17T02:20:05.157Z,93661.70
2023-01-17T02:23:19.026Z,93656.38
2023-01-17T02:26:13.377Z,93660.75
2023-01-17T02:29:19.545Z,93671.69
2023-01-17T02:32:37.094Z,93672.02
2023-01-17T02:35:16.326Z,93675.82
2023-01-17T02:38:25.664Z,93679.09
2023-01-17T02:41:03.977Z,93681.75
2023-01-17T02:43:34.097Z,93679.67
2023-01-17T02:46:02.363Z,93678.13
2023-01-17T02:48:33.440Z,93670.52
2023-01-17T02:51:30.882Z,93664.05
2023-01-17T02:54:15.949Z,93659.36
2023-01-17T02:56:44.074Z,93655.98
2023-01-17T02:59:18.045Z,93654.42
2023-01-17T03:01:58.459Z,93656.16
2023-01-17T03:04:51.774Z,93651.05
2023-01-17T03:07:27.545Z,93645.01
2023-01-17T03:10:00.715Z,93643.44
2023-01-17T03:12:31.576Z,93636.60
2023-01-17T03:14:59.867Z,93629.02
2023-01-17T03:17:33.141Z,93622.06
2023-01-17T03:20:01.304Z,93615.20
2023-01-17T03:22:29.489Z,93612.88
2023-01-17T03:24:57.862Z,93612.44
2023-01-17T03:27:26.354Z,93616.54
2023-01-17T03:29:54.819Z,93617.30
2023-01-17T03:32:23.413Z,93615.44
2023-01-17T03:34:51.690Z,93607.90
2023-01-17T03:37:20.367Z,93604.02
2023-01-17T03:39:49.373Z,93610.41
2023-01-17T03:42:17.557Z,93609.93
2023-01-17T03:44:46.032Z,93612.98
2023-01-17T03:47:14.217Z,93615.29
2023-01-17T03:49:42.390Z,93620.80
2023-01-17T03:52:10.962Z,93622.17
2023-01-17T03:54:39.254Z,93619.51
2023-01-17T03:57:08.860Z,93611.50
2023-01-17T03:59:37.174Z,93604.98
2023-01-17T04:02:05.626Z,93604.45
2023-01-17T04:04:34.408Z,93602.09
2023-01-17T04:07:02.506Z,93590.58
2023-01-17T04:09:34.347Z,93586.73
2023-01-17T04:12:03.361Z,93581.23
2023-01-17T04:14:31.519Z,93582.27
2023-01-17T04:17:00.262Z,93589.05
2023-01-17T04:19:29.411Z,93590.54
2023-01-17T04:21:57.554Z,93593.70
2023-01-17T04:24:25.797Z,93590.30
2023-01-17T04:26:53.931Z,93591.55
2023-01-17T04:29:22.414Z,93587.49
2023-01-17T04:31:50.946Z,93585.27
2023-01-17T04:34:19.250Z,93588.34
2023-01-17T04:36:47.671Z,93586.91
2023-01-17T04:39:15.938Z,93589.48
2023-01-17T04:41:44.269Z,93584.72
2023-01-17T04:44:12.597Z,93587.75
2023-01-17T04:46:40.986Z,93588.61
2023-01-17T04:49:09.359Z,93587.44
2023-01-17T04:51:37.939Z,93585.72
2023-01-17T04:54:06.423Z,93581.84
2023-01-17T04:56:34.802Z,93583.17
2023-01-17T04:59:03.080Z,93585.63
2023-01-17T05:01:31.361Z,93584.18
2023-01-17T05:03:59.635Z,93580.60
2023-01-17T05:06:27.785Z,93574.63
2023-01-17T05:08:56.089Z,93574.68
2023-01-17T05:11:24.888Z,93573.98
2023-01-17T05:13:53.270Z,93578.42
2023-01-17T05:16:21.369Z,93580.36
2023-01-17T05:18:53.768Z,93582.09
2023-01-17T05:21:22.721Z,93589.14
2023-01-17T05:23:51.812Z,93590.21
2023-01-17T05:26:20.241Z,93590.67
2023-01-17T05:28:48.569Z,93587.65
2023-01-17T05:31:17.635Z,93581.06
2023-01-17T05:33:45.867Z,93580.21
2023-01-17T05:36:14.223Z,93569.30
2023-01-17T05:38:42.532Z,93555.38
2023-01-17T05:41:11.003Z,93544.70
2023-01-17T05:43:39.469Z,93540.35
2023-01-17T05:46:08.724Z,93536.97
2023-01-17T05:48:37.061Z,93545.30
2023-01-17T05:51:05.341Z,93558.75
2023-01-17T05:53:34.314Z,93563.35
2023-01-17T05:56:02.602Z,93560.20
2023-01-17T05:58:31.084Z,93571.23
2023-01-17T06:01:01.655Z,93568.98
2023-01-17T06:03:30.227Z,93569.95
2023-01-17T06:06:00.352Z,93570.78
2023-01-17T06:08:28.805Z,93572.48
2023-01-17T06:10:59.656Z,93563.66
2023-01-17T06:13:27.856Z,93565.20
2023-01-17T06:16:02.875Z,93556.90
2023-01-17T06:18:31.967Z,93568.63
2023-01-17T06:21:00.335Z,93580.39
2023-01-17T06:23:28.647Z,93586.72
2023-01-17T06:25:57.115Z,93588.90
2023-01-17T06:28:25.580Z,93594.27
2023-01-17T06:30:54.036Z,93605.70
2023-01-17T06:33:23.877Z,93610.11
2023-01-17T06:35:53.158Z,93613.27
2023-01-17T06:38:22.006Z,93617.02
2023-01-17T06:40:50.239Z,93619.81
2023-01-17T06:43:19.136Z,93624.16
2023-01-17T06:45:49.319Z,93643.90
2023-01-17T06:48:18.975Z,93654.11
2023-01-17T06:50:48.700Z,93642.23
2023-01-17T06:53:20.641Z,93621.50
2023-01-17T06:55:49.552Z,93610.73
2023-01-17T06:58:19.662Z,93622.13
2023-01-17T07:00:48.246Z,93635.23
2023-01-17T07:03:22.259Z,93635.92
2023-01-17T07:05:51.861Z,93633.49
2023-01-17T07:08:20.825Z,93628.66
2023-01-17T07:10:49.492Z,93628.75
2023-01-17T07:13:17.956Z,93625.69
2023-01-17T07:15:47.397Z,93613.73
2023-01-17T07:18:20.620Z,93597.55
2023-01-17T07:20:52.911Z,93597.90
2023-01-17T07:23:23.757Z,93606.89
2023-01-17T07:25:59.872Z,93618.45
2023-01-17T07:28:28.809Z,93629.51
2023-01-17T07:30:57.807Z,93634.73
2023-01-17T07:33:26.127Z,93634.41
2023-01-17T07:40:04.027Z,93631.90
2023-01-17T07:42:30.991Z,93638.80
2023-01-17T07:45:00.260Z,93642.46
2023-01-17T07:47:27.096Z,93640.52
2023-01-17T07:49:54.325Z,93648.85
2023-01-17T07:52:21.206Z,93660.91
2023-01-17T07:54:48.155Z,93660.39
2023-01-17T07:57:15.060Z,93659.83
2023-01-17T07:59:42.452Z,93664.69
2023-01-17T08:02:17.707Z,93645.45
2023-01-17T08:04:45.155Z,93632.52
2023-01-17T08:07:13.526Z,93628.52
2023-01-17T08:09:42.022Z,93642.18
2023-01-17T08:12:09.990Z,93650.98
2023-01-17T08:14:36.928Z,93650.02
2023-01-17T08:17:10.064Z,93642.58
2023-01-17T08:19:37.079Z,93643.48
2023-01-17T08:22:04.226Z,93648.52
2023-01-17T08:24:30.957Z,93649.05
2023-01-17T08:26:57.651Z,93648.18
2023-01-17T08:29:24.565Z,93642.96
2023-01-17T08:31:51.657Z,93648.33
2023-01-17T08:34:18.620Z,93644.23
2023-01-17T08:36:47.489Z,93648.95
2023-01-17T08:39:14.298Z,93655.09
2023-01-17T08:41:41.209Z,93658.89
2023-01-17T08:44:08.489Z,93667.27
2023-01-17T08:46:38.315Z,93670.42
2023-01-17T08:49:05.147Z,93677.23
2023-01-17T08:51:33.021Z,93673.72
2023-01-17T08:53:59.972Z,93674.39
2023-01-17T08:56:27.365Z,93675.45
2023-01-17T08:58:54.478Z,93679.77
2023-01-17T09:01:21.244Z,93683.05
2023-01-17T09:03:49.324Z,93681.74
2023-01-17T09:06:17.058Z,93675.17
2023-01-17T09:08:47.482Z,93675.35
2023-01-17T09:11:16.723Z,93693.77
2023-01-17T09:13:44.241Z,93708.98
2023-01-17T09:16:11.568Z,93706.42
2023-01-17T09:18:38.873Z,93711.31
2023-01-17T09:21:17.417Z,93706.35
2023-01-17T09:23:44.894Z,93710.14
2023-01-17T09:26:20.094Z,93704.37
2023-01-17T09:28:47.852Z,93712.45
2023-01-17T09:31:17.373Z,93711.70
2023-01-17T09:33:44.424Z,93711.36
2023-01-17T09:36:11.204Z,93711.30
2023-01-17T09:38:39.725Z,93716.15
2023-01-17T09:41:28.140Z,93726.28
2023-01-17T09:44:39.778Z,93729.17
2023-01-17T09:47:34.212Z,93728.38
2023-01-17T09:50:25.293Z,93722.88
2023-01-17T09:53:00.836Z,93723.25
2023-01-17T09:55:34.379Z,93714.66
2023-01-17T09:58:07.369Z,93700.66
2023-01-17T10:00:59.834Z,93700.17
2023-01-17T10:04:01.448Z,93685.16
2023-01-17T10:07:25.736Z,93693.61
2023-01-17T10:10:01.832Z,93685.60
2023-01-17T10:12:50.367Z,93683.17
2023-01-17T10:15:30.699Z,93682.41
2023-01-17T10:18:07.077Z,93672.52
2023-01-17T10:20:54.089Z,93681.69
2023-01-17T10:23:33.013Z,93686.29
2023-01-17T10:26:30.643Z,93682.88
2023-01-17T10:29:03.766Z,93678.52
2023-01-17T10:31:37.970Z,93676.86
2023-01-17T10:34:28.999Z,93680.15
2023-01-17T10:37:18.401Z,93687.16
2023-01-17T10:39:48.185Z,93679.33
2023-01-17T10:42:25.244Z,93686.35
2023-01-17T10:45:14.677Z,93694.77
2023-01-17T10:47:47.935Z,93688.86
2023-01-17T10:50:16.022Z,93693.00
2023-01-17T10:52:56.273Z,93689.28
2023-01-17T10:55:43.593Z,93685.55
2023-01-17T10:58:14.624Z,93693.42
2023-01-17T11:00:54.305Z,93683.56
2023-01-17T11:03:21.236Z,93680.71
2023-01-17T11:06:24.334Z,93679.64
2023-01-17T11:08:58.973Z,93677.30
2023-01-17T11:11:31.739Z,93673.15
2023-01-17T11:14:25.831Z,93684.30
2023-01-17T11:17:04.333Z,93682.59
2023-01-17T11:19:35.789Z,93688.23
2023-01-17T11:22:05.934Z,93685.75
2023-01-17T11:24:50.557Z,93685.06
2023-01-17T11:27:28.520Z,93684.11
2023-01-17T11:30:06.693Z,93681.09
2023-01-17T11:32:34.254Z,93686.84
2023-01-17T11:35:32.135Z,93685.94
2023-01-17T11:38:01.861Z,93685.14
2023-01-17T11:40:39.529Z,93690.34
2023-01-17T11:43:13.859Z,93695.11
2023-01-17T11:45:41.477Z,93696.28
2023-01-17T11:48:08.366Z,93695.02
2023-01-17T11:50:58.980Z,93688.83
2023-01-17T11:53:29.911Z,93689.71
2023-01-17T11:55:57.078Z,93682.99
2023-01-17T11:58:26.917Z,93673.97
2023-01-17T12:01:20.153Z,93674.83
2023-01-17T12:04:02.474Z,93678.95
2023-01-17T12:06:56.507Z,93674.70
2023-01-17T12:09:39.858Z,93673.01
2023-01-17T12:12:36.815Z,93672.14
2023-01-17T12:15:21.829Z,93673.58
2023-01-17T12:18:10.434Z,93669.71
2023-01-17T12:21:03.012Z,93664.25
2023-01-17T12:23:56.758Z,93665.03
2023-01-17T12:26:45.443Z,93671.58
2023-01-17T12:29:48.414Z,93674.75
2023-01-17T12:32:27.335Z,93680.37
2023-01-17T12:35:09.034Z,93684.04
2023-01-17T12:38:03.716Z,93680.38
2023-01-17T12:41:00.173Z,93675.34
2023-01-17T12:43:34.733Z,93673.48
2023-01-17T12:46:10.045Z,93671.06
2023-01-17T12:48:38.715Z,93670.73
2023-01-17T12:51:17.720Z,93679.16
2023-01-17T12:54:15.926Z,93687.80
2023-01-17T12:56:51.874Z,93690.08
2023-01-17T12:59:29.541Z,93691.80
2023-01-17T13:01:59.133Z,93695.56
2023-01-17T13:04:34.141Z,93700.27
2023-01-17T13:07:26.289Z,93703.05
2023-01-17T13:10:11.531Z,93717.10
2023-01-17T13:12:39.223Z,93718.43
2023-01-17T13:15:16.911Z,93715.95
2023-01-17T13:18:13.703Z,93714.77
2023-01-17T13:21:04.271Z,93709.80
2023-01-17T13:23:52.439Z,93710.52
2023-01-17T13:26:25.303Z,93707.25
2023-01-17T13:29:23.069Z,93708.30
2023-01-17T13:32:27.334Z,93696.07
2023-01-17T13:35:09.999Z,93693.21
2023-01-17T13:37:49.048Z,93691.35
2023-01-17T13:40:39.370Z,93696.53
2023-01-17T13:43:14.681Z,93694.04
2023-01-17T13:45:51.983Z,93691.65
2023-01-17T13:48:19.016Z,93692.70
2023-01-17T13:50:46.166Z,93688.14
2023-01-17T13:53:46.096Z,93687.23
2023-01-17T13:56:19.004Z,93691.67
2023-01-17T13:58:49.805Z,93695.10
2023-01-17T14:01:42.692Z,93694.34
2023-01-17T14:04:12.986Z,93699.73
2023-01-17T14:06:47.425Z,93707.59
2023-01-17T14:09:20.108Z,93717.90
2023-01-17T14:12:04.058Z,93723.40
2023-01-17T14:14:40.416Z,93720.17
2023-01-17T14:17:22.630Z,93719.64
2023-01-17T14:20:05.737Z,93728.68
2023-01-17T14:22:40.681Z,93723.55
2023-01-17T14:25:19.196Z,93727.02
2023-01-17T14:27:52.176Z,93720.61
2023-01-17T14:30:27.424Z,93711.05
2023-01-17T14:33:00.741Z,93711.98
2023-01-17T14:35:31.862Z,93710.44
2023-01-17T14:38:02.376Z,93718.73
2023-01-17T14:40:35.590Z,93721.95
2023-01-17T14:43:19.264Z,93717.34
2023-01-17T14:45:46.506Z,93725.16
2023-01-17T14:48:20.941Z,93728.52
2023-01-17T14:50:51.792Z,93730.88
2023-01-17T14:53:27.547Z,93734.92
2023-01-17T14:56:01.032Z,93742.71
2023-01-17T14:58:31.941Z,93736.37
2023-01-17T15:01:13.396Z,93733.20
2023-01-17T15:03:50.523Z,93728.41
2023-01-17T15:06:26.269Z,93731.96
2023-01-17T15:08:53.368Z,93733.13
2023-01-17T15:11:32.206Z,93730.33
2023-01-17T15:14:05.161Z,93724.20
2023-01-17T15:16:37.822Z,93724.80
2023-01-17T15:19:14.129Z,93724.91
2023-01-17T15:21:43.583Z,93730.06
2023-01-17T15:24:16.875Z,93732.94
2023-01-17T15:26:44.138Z,93738.85
2023-01-17T15:29:39.871Z,93738.80
2023-01-17T15:32:16.529Z,93732.41
2023-01-17T15:34:45.221Z,93723.25
2023-01-17T15:37:21.175Z,93723.13
2023-01-17T15:39:48.332Z,93731.41
2023-01-17T15:42:25.045Z,93731.61
2023-01-17T15:44:56.127Z,93719.20
2023-01-17T15:47:38.010Z,93702.00
2023-01-17T15:50:39.195Z,93713.27
2023-01-17T15:53:27.877Z,93732.41
2023-01-17T15:55:55.215Z,93735.45
2023-01-17T15:58:29.436Z,93735.41
2023-01-17T16:00:56.572Z,93732.67
2023-01-17T16:03:30.110Z,93738.98
2023-01-17T16:05:59.725Z,93750.45
2023-01-17T16:08:26.548Z,93744.10
2023-01-17T16:10:58.443Z,93730.13
2023-01-17T16:13:25.453Z,93720.48
2023-01-17T16:15:52.531Z,93712.59
2023-01-17T16:18:25.286Z,93711.08
2023-01-17T16:21:00.025Z,93707.53
2023-01-17T16:23:27.912Z,93704.99
2023-01-17T16:25:54.939Z,93706.70
2023-01-17T16:28:22.205Z,93707.54
2023-01-17T16:30:49.090Z,93699.35
2023-01-17T16:33:16.490Z,93693.99
2023-01-17T16:35:43.636Z,93695.89
2023-01-17T16:38:13.419Z,93695.76
2023-01-17T16:40:45.690Z,93696.38
2023-01-17T16:43:14.508Z,93692.08
2023-01-17T16:45:43.614Z,93689.05
2023-01-17T16:48:13.558Z,93694.41
2023-01-17T16:50:50.344Z,93687.76
2023-01-17T16:53:23.415Z,93676.98
2023-01-17T16:55:55.057Z,93670.70
2023-01-17T16:58:22.308Z,93669.48
2023-01-17T17:00:49.396Z,93666.89
2023-01-17T17:03:18.590Z,93661.85
2023-01-17T17:05:55.166Z,93660.02
2023-01-17T17:08:22.800Z,93660.59
2023-01-17T17:10:50.356Z,93663.48
2023-01-17T17:13:17.506Z,93663.15
2023-01-17T17:15:44.242Z,93665.79
2023-01-17T17:18:15.943Z,93669.69
2023-01-17T17:20:43.979Z,93666.44
2023-01-17T17:23:11.389Z,93664.55
2023-01-17T17:25:38.590Z,93668.52
2023-01-17T17:28:06.132Z,93665.11
2023-01-17T17:30:34.040Z,93659.68
2023-01-17T17:33:04.050Z,93648.27
2023-01-17T17:35:34.299Z,93643.63
2023-01-17T17:38:01.134Z,93642.14
2023-01-17T17:40:27.903Z,93636.40
2023-01-17T17:42:54.653Z,93630.69
2023-01-17T17:45:21.769Z,93625.40
2023-01-17T17:47:48.449Z,93621.91
2023-01-17T17:50:15.735Z,93618.58
2023-01-17T17:52:43.567Z,93613.67
2023-01-17T17:55:12.522Z,93603.95
2023-01-17T17:57:39.350Z,93594.02
2023-01-17T18:00:07.755Z,93587.41
2023-01-17T18:02:34.446Z,93579.81
2023-01-17T18:05:01.860Z,93574.41
2023-01-17T18:07:32.055Z,93572.56
2023-01-17T18:09:58.999Z,93570.39
2023-01-17T18:12:26.461Z,93576.18
2023-01-17T18:14:53.279Z,93571.38
2023-01-17T18:17:20.141Z,93562.90
2023-01-17T18:19:47.099Z,93557.51
2023-01-17T18:22:13.833Z,93548.83
2023-01-17T18:24:40.675Z,93540.63
2023-01-17T18:27:09.713Z,93529.63
2023-01-17T18:29:36.534Z,93521.82
2023-01-17T18:32:03.469Z,93515.75
2023-01-17T18:34:30.255Z,93512.01
2023-01-17T18:36:57.925Z,93515.34
2023-01-17T18:39:27.143Z,93513.38
2023-01-17T18:41:54.514Z,93506.86
2023-01-17T18:44:22.460Z,93506.10
2023-01-17T18:46:50.610Z,93495.71
2023-01-17T18:49:21.025Z,93488.70
2023-01-17T18:51:51.656Z,93484.87
2023-01-17T18:54:19.841Z,93473.61
2023-01-17T18:56:47.481Z,93468.13
2023-01-17T18:59:17.657Z,93462.96
2023-01-17T19:01:45.005Z,93456.35
2023-01-17T19:04:13.584Z,93447.65
2023-01-17T19:06:43.487Z,93445.16
2023-01-17T19:09:12.668Z,93440.62
2023-01-17T19:11:40.074Z,93435.02
2023-01-17T19:14:07.284Z,93428.95
2023-01-17T19:16:38.761Z,93427.78
2023-01-17T19:19:10.518Z,93429.42
2023-01-17T19:21:37.740Z,93425.08
2023-01-17T19:24:06.952Z,93416.41
2023-01-17T19:26:33.919Z,93406.41
2023-01-17T19:29:04.410Z,93398.44
2023-01-17T19:31:35.167Z,93398.11
2023-01-17T19:34:02.328Z,93395.95
2023-01-17T19:36:34.504Z,93386.76
2023-01-17T19:39:05.252Z,93376.77
2023-01-17T19:41:35.184Z,93373.07
2023-01-17T19:44:05.403Z,93362.77
2023-01-17T19:46:33.257Z,93359.34
2023-01-17T19:49:00.483Z,93356.53
2023-01-17T19:51:27.934Z,93351.10
2023-01-17T19:53:55.517Z,93351.11
2023-01-17T19:56:25.101Z,93352.48
2023-01-17T19:58:52.460Z,93351.37
2023-01-17T20:01:29.524Z,93350.36
2023-01-17T20:03:58.215Z,93351.69
2023-01-17T20:06:28.993Z,93347.35
2023-01-17T20:08:56.647Z,93349.98
2023-01-17T20:11:27.386Z,93342.36
2023-01-17T20:13:56.188Z,93347.13
2023-01-17T20:16:24.818Z,93348.02
2023-01-17T20:18:52.743Z,93340.98
2023-01-17T20:21:22.423Z,93339.17
2023-01-17T20:23:51.113Z,93343.30
2023-01-17T20:26:21.898Z,93345.73
2023-01-17T20:28:53.657Z,93338.40
2023-01-17T20:31:23.429Z,93342.98
2023-01-17T20:33:52.730Z,93338.81
2023-01-17T20:36:22.748Z,93337.23
2023-01-17T20:38:50.299Z,93332.35
2023-01-17T20:41:28.416Z,93332.18
2023-01-17T20:43:57.710Z,93335.45
2023-01-17T20:46:27.342Z,93332.17
2023-01-17T20:48:57.203Z,93329.23
2023-01-17T20:51:26.036Z,93327.23
2023-01-17T20:53:55.743Z,93329.91
2023-01-17T20:56:24.026Z,93330.80
2023-01-17T20:58:56.051Z,93319.81
2023-01-17T21:01:22.971Z,93322.50
2023-01-17T21:03:53.252Z,93319.41
2023-01-17T21:06:22.644Z,93328.23
2023-01-17T21:08:51.152Z,93330.64
2023-01-17T21:11:23.854Z,93335.35
2023-01-17T21:13:51.402Z,93337.29
2023-01-17T21:16:22.281Z,93342.80
2023-01-17T21:18:51.126Z,93336.06
2023-01-17T21:21:23.629Z,93337.40
2023-01-17T21:23:53.010Z,93333.44
2023-01-17T21:26:21.971Z,93332.59
2023-01-17T21:28:50.289Z,93327.58
2023-01-17T21:31:27.675Z,93317.27
2023-01-17T21:33:55.825Z,93313.08
2023-01-17T21:36:26.883Z,93298.88
2023-01-17T21:38:56.531Z,93292.77
2023-01-17T21:41:28.950Z,93287.37
2023-01-17T21:44:01.041Z,93289.13
2023-01-17T21:46:29.367Z,93277.71
2023-01-17T21:48:57.181Z,93267.91
2023-01-17T21:51:44.918Z,93272.54
2023-01-17T21:54:12.081Z,93260.79
2023-01-17T21:56:57.856Z,93253.58
2023-01-17T21:59:24.710Z,93248.66
2023-01-17T22:01:51.563Z,93253.31
2023-01-17T22:04:18.414Z,93245.34
2023-01-17T22:06:46.164Z,93242.30
2023-01-17T22:09:14.651Z,93237.44
2023-01-17T22:11:41.601Z,93237.48
2023-01-17T22:14:08.841Z,93241.19
2023-01-17T22:16:35.691Z,93240.69
2023-01-17T22:19:02.750Z,93239.84
2023-01-17T22:21:29.702Z,93235.06
2023-01-17T22:23:58.902Z,93231.27
2023-01-17T22:26:29.005Z,93237.88
2023-01-17T22:28:59.333Z,93240.89
2023-01-17T22:31:26.996Z,93229.98
2023-01-17T22:33:55.520Z,93228.49
2023-01-17T22:36:23.154Z,93241.13
2023-01-17T22:38:50.171Z,93251.37
2023-01-17T22:41:22.767Z,93255.70
2023-01-17T22:43:52.396Z,93248.69
2023-01-17T22:46:25.445Z,93244.67
2023-01-17T22:48:54.064Z,93244.20
2023-01-17T22:51:22.760Z,93244.33
2023-01-17T22:53:52.643Z,93240.28
2023-01-17T22:56:22.583Z,93237.13
2023-01-17T22:58:50.357Z,93236.38
2023-01-17T23:01:24.010Z,93232.83
2023-01-17T23:03:55.080Z,93237.15
2023-01-17T23:06:27.499Z,93236.86
2023-01-17T23:08:56.701Z,93232.49
2023-01-17T23:11:49.419Z,93242.66
2023-01-17T23:14:51.599Z,93246.08
2023-01-17T23:17:40.060Z,93252.48
2023-01-17T23:20:10.454Z,93256.50
2023-01-17T23:22:37.753Z,93256.58
2023-01-17T23:25:07.345Z,93258.23
2023-01-17T23:28:03.957Z,93260.27
2023-01-17T23:30:36.772Z,93260.09
2023-01-17T23:33:09.083Z,93255.80
2023-01-17T23:35:41.721Z,93255.90
2023-01-17T23:38:33.246Z,93258.91
2023-01-17T23:41:22.626Z,93260.52
2023-01-17T23:43:51.717Z,93268.92
2023-01-17T23:46:19.251Z,93270.70
2023-01-17T23:48:46.533Z,93266.16
2023-01-17T23:51:13.426Z,93259.98
2023-01-17T23:53:40.435Z,93268.07
2023-01-17T23:56:15.348Z,93264.30
2023-01-17T23:58:42.309Z,93267.83
